Time;durP1;ratioP1;P1;durP2;ratioP2;P2;SDS_P1;SDS_P2;PMS_P1;PMS_P2;Temp;Humidity;BMP_temperature;BMP_pressure;BME280_temperature;BME280_humidity;BME280_pressure;Samples;Min_cycle;Max_cycle;Signal;HPM_P1;HPM_P2
2021/01/18 05:09:23;;;;;;;8.00;7.30;;;;;;;21.98;46.13;98958.19;21430425;23;20230;-82
2021/01/18 05:19:25;;;;;;;7.00;6.50;;;;;;;22.08;46.23;98964.88;20703875;28;20222;-82
2021/01/18 05:29:30;;;;;;;7.57;7.07;;;;;;;22.18;46.27;98981.22;20731422;28;20218;-81
2021/01/18 05:39:33;;;;;;;7.07;6.57;;;;;;;22.28;46.23;98994.91;20758817;28;20226;-82
2021/01/18 05:49:42;;;;;;;7.70;7.10;;;;;;;22.33;46.09;98991.81;20730864;28;20519;-81
2021/01/18 05:59:44;;;;;;;7.87;7.27;;;;;;;22.37;45.78;98999.13;20691240;28;20269;-81
2021/01/18 06:09:47;;;;;;;7.70;7.10;;;;;;;22.34;45.77;99016.91;20671690;28;20300;-81
2021/01/18 06:19:49;;;;;;;8.20;7.60;;;;;;;22.32;45.58;99021.53;20701895;28;20230;-80
2021/01/18 06:29:52;;;;;;;7.73;7.07;;;;;;;22.26;45.63;99022.16;20677101;28;20265;-81
2021/01/18 06:39:56;;;;;;;7.53;6.93;;;;;;;22.22;45.57;99042.53;20659854;28;20292;-81
2021/01/18 06:49:59;;;;;;;6.43;5.93;;;;;;;22.23;45.71;99049.41;20656265;28;20219;-81
2021/01/18 07:00:02;;;;;;;6.47;6.03;;;;;;;22.28;46.02;99059.38;20667537;28;20219;-83
2021/01/18 07:10:06;;;;;;;6.37;5.97;;;;;;;22.34;46.41;99056.91;20672322;28;20226;-79
2021/01/18 07:20:09;;;;;;;8.37;7.10;;;;;;;22.28;44.80;99088.91;20710066;28;20243;-79
2021/01/18 07:30:14;;;;;;;7.50;6.80;;;;;;;22.19;45.38;99089.03;20704914;28;20243;-80
2021/01/18 07:40:17;;;;;;;12.10;7.10;;;;;;;22.29;45.97;99111.44;20681702;28;20219;-79
2021/01/18 07:50:27;;;;;;;10.97;6.87;;;;;;;22.52;45.73;99102.97;20681254;28;20241;-72
2021/01/18 08:00:32;;;;;;;8.10;5.70;;;;;;;22.69;45.35;99107.25;20675595;28;20277;-73
2021/01/18 08:10:55;;;;;;;8.00;5.60;;;;;;;22.79;45.47;99107.91;20662823;28;20769;-73
2021/01/18 08:20:56;;;;;;;4.43;4.03;;;;;;;22.83;45.61;99117.03;20661291;28;20638;-72
2021/01/18 08:30:59;;;;;;;5.50;3.80;;;;;;;22.86;45.34;99117.53;20668929;28;20590;-72
2021/01/18 08:41:06;;;;;;;4.90;3.23;;;;;;;23.40;44.29;99124.69;20654503;28;20898;-73
2021/01/18 08:51:09;;;;;;;5.00;4.10;;;;;;;22.96;45.36;99126.03;20640569;28;20811;-73
2021/01/18 09:01:13;;;;;;;5.73;4.33;;;;;;;22.89;45.57;99129.47;20637826;28;20345;-72
2021/01/18 09:11:15;;;;;;;4.70;4.30;;;;;;;22.86;45.71;99128.00;20646339;28;20242;-73
2021/01/18 09:21:17;;;;;;;6.03;4.23;;;;;;;22.82;45.78;99134.53;20633779;28;20378;-73
2021/01/18 09:31:20;;;;;;;4.10;3.70;;;;;;;22.79;45.93;99139.28;20654647;28;20237;-73
2021/01/18 09:41:22;;;;;;;5.53;3.77;;;;;;;22.78;45.98;99145.47;20659417;28;20335;-73
2021/01/18 09:51:25;;;;;;;4.23;3.83;;;;;;;22.79;45.93;99149.72;20682807;28;20694;-69
2021/01/18 10:01:32;;;;;;;5.10;3.90;;;;;;;22.79;45.94;99147.13;20649022;28;20488;-71
2021/01/18 10:11:40;;;;;;;4.80;4.30;;;;;;;22.84;45.56;99148.25;20654912;28;20705;-72
2021/01/18 10:21:42;;;;;;;4.40;4.00;;;;;;;22.89;45.52;99153.00;20654325;28;20399;-72
2021/01/18 10:31:51;;;;;;;5.73;3.60;;;;;;;22.93;45.52;99130.75;20658160;28;20275;-72
2021/01/18 10:41:53;;;;;;;4.53;3.83;;;;;;;22.95;45.84;99128.81;20647247;28;21013;-72
2021/01/18 10:52:04;;;;;;;6.20;3.43;;;;;;;22.93;45.76;99122.91;20652628;28;20313;-72
2021/01/18 11:02:06;;;;;;;4.87;3.90;;;;;;;22.91;45.83;99127.50;20643530;28;20383;-72
2021/01/18 11:12:09;;;;;;;3.90;3.60;;;;;;;22.92;45.98;99121.28;20647298;28;20309;-70
2021/01/18 11:22:11;;;;;;;4.70;3.53;;;;;;;22.89;45.95;99119.00;20622835;28;20329;-71
2021/01/18 11:32:13;;;;;;;5.60;4.37;;;;;;;22.86;45.97;99121.94;20645842;28;20353;-72
2021/01/18 11:42:15;;;;;;;4.13;3.70;;;;;;;22.96;45.83;99125.19;20641694;28;20609;-71
2021/01/18 11:52:17;;;;;;;4.77;3.90;;;;;;;23.21;45.72;99106.69;20620447;28;20333;-69
2021/01/18 12:02:19;;;;;;;3.77;3.37;;;;;;;23.63;45.09;99105.66;20628798;28;20301;-69
2021/01/18 12:12:22;;;;;;;3.80;3.50;;;;;;;23.92;44.59;99088.31;20625532;28;20645;-69
2021/01/18 12:22:23;;;;;;;4.73;4.30;;;;;;;24.11;44.21;99087.94;20621238;28;20330;-70
2021/01/18 12:32:26;;;;;;;4.10;3.80;;;;;;;24.24;43.87;99090.78;20621011;28;20313;-71
2021/01/18 12:42:27;;;;;;;5.10;3.80;;;;;;;24.01;44.27;99078.66;20677027;28;20645;-71
2021/01/18 12:52:30;;;;;;;4.60;3.73;;;;;;;23.76;44.70;99077.94;20678053;28;20249;-70
2021/01/18 13:02:31;;;;;;;3.80;3.60;;;;;;;23.55;44.80;99080.31;20684209;28;20749;-70
2021/01/18 13:12:34;;;;;;;5.00;3.97;;;;;;;23.37;45.05;99067.47;20696784;28;20223;-71
2021/01/18 13:22:35;;;;;;;4.40;4.00;;;;;;;23.26;45.14;99067.00;20673567;28;20772;-70
2021/01/18 13:32:38;;;;;;;3.70;3.40;;;;;;;23.18;45.33;99069.59;20697204;28;20211;-71
2021/01/18 13:42:40;;;;;;;3.60;3.30;;;;;;;23.22;45.45;99074.34;20662273;28;20226;-69
2021/01/18 13:52:42;;;;;;;4.67;3.70;;;;;;;23.29;45.21;99074.53;20670231;28;20263;-69
2021/01/18 14:02:44;;;;;;;3.77;3.47;;;;;;;23.32;45.20;99071.56;20650652;28;20227;-70
2021/01/18 14:12:47;;;;;;;5.50;3.50;;;;;;;23.29;45.44;99059.63;20655895;28;20223;-69
2021/01/18 14:22:48;;;;;;;6.63;3.60;;;;;;;23.27;45.93;99058.19;20649600;28;20218;-71
2021/01/18 14:32:51;;;;;;;6.67;3.80;;;;;;;23.21;45.70;99056.22;20648621;28;20634;-70
2021/01/18 14:42:52;;;;;;;5.53;3.77;;;;;;;23.17;45.85;99054.91;20651435;28;20233;-71
2021/01/18 14:52:57;;;;;;;7.03;4.27;;;;;;;23.16;46.08;99050.69;20654413;28;20273;-71
2021/01/18 15:02:58;;;;;;;4.30;3.90;;;;;;;23.15;45.89;99041.19;20652699;28;20218;-71
2021/01/18 15:13:01;;;;;;;5.40;4.20;;;;;;;23.20;45.54;99039.72;20639405;28;20218;-71
2021/01/18 15:23:02;;;;;;;3.43;3.13;;;;;;;23.28;45.44;99036.25;20639977;28;20227;-68
2021/01/18 15:33:05;;;;;;;4.73;3.87;;;;;;;23.26;45.51;99038.22;20650443;28;20218;-69
2021/01/18 15:43:07;;;;;;;5.53;3.80;;;;;;;23.23;45.73;99049.00;20632134;28;20226;-68
2021/01/18 15:53:09;;;;;;;6.90;4.50;;;;;;;23.19;46.43;99042.50;20620645;28;20215;-69
2021/01/18 16:03:11;;;;;;;5.67;3.83;;;;;;;23.16;47.14;99048.06;20640033;28;20270;-68
2021/01/18 16:13:13;;;;;;;5.80;3.70;;;;;;;23.09;47.33;99066.19;20702209;28;20280;-70
2021/01/18 16:23:15;;;;;;;6.60;3.90;;;;;;;23.07;47.11;99075.19;20660209;28;20878;-70
2021/01/18 16:33:18;;;;;;;4.20;3.90;;;;;;;23.05;47.34;99070.16;20669678;28;20256;-70
2021/01/18 16:43:19;;;;;;;8.43;4.40;;;;;;;23.05;47.11;99071.94;20675977;28;20606;-69
2021/01/18 16:53:22;;;;;;;6.90;4.10;;;;;;;23.09;47.44;99073.25;20661414;28;20772;-71
2021/01/18 17:03:23;;;;;;;5.40;3.90;;;;;;;23.11;47.27;99063.41;20662640;28;20222;-71
2021/01/18 17:13:26;;;;;;;5.37;4.53;;;;;;;23.09;47.07;99068.81;20664418;28;20269;-72
2021/01/18 17:23:28;;;;;;;6.37;4.30;;;;;;;23.06;46.99;99047.41;20651686;28;20777;-69
2021/01/18 17:33:30;;;;;;;4.93;4.17;;;;;;;23.04;47.13;99044.16;20670131;28;20238;-69
2021/01/18 17:43:32;;;;;;;5.93;4.27;;;;;;;23.00;47.20;99041.06;20662175;28;20219;-69
2021/01/18 17:53:34;;;;;;;5.60;3.50;;;;;;;22.97;47.21;99049.25;20665500;28;20760;-70
2021/01/18 18:03:36;;;;;;;5.00;3.87;;;;;;;22.94;47.16;99052.16;20611643;28;20231;-69
2021/01/18 18:13:39;;;;;;;7.63;3.70;;;;;;;23.01;47.06;99055.75;20602252;28;20294;-70
2021/01/18 18:23:40;;;;;;;3.83;3.50;;;;;;;23.11;46.85;99072.06;20593493;28;20219;-70
2021/01/18 18:33:43;;;;;;;4.03;3.77;;;;;;;23.19;46.81;99060.78;20595369;28;20246;-70
2021/01/18 18:43:44;;;;;;;8.53;3.83;;;;;;;23.20;46.51;99059.81;20589783;28;20759;-70
2021/01/18 18:53:49;;;;;;;3.97;3.47;;;;;;;23.19;46.56;99052.94;20602186;28;20211;-71
2021/01/18 19:03:50;;;;;;;4.87;3.40;;;;;;;23.12;46.89;99051.97;20589830;28;20223;-71
2021/01/18 19:13:53;;;;;;;5.10;3.50;;;;;;;23.08;46.72;99048.06;20581524;28;20246;-70
2021/01/18 19:23:55;;;;;;;3.77;3.23;;;;;;;23.06;46.76;99031.72;20579493;28;20309;-71
2021/01/18 19:33:57;;;;;;;2.97;2.50;;;;;;;23.07;46.67;99028.97;20579475;28;20298;-70
2021/01/18 19:44:01;;;;;;;7.10;2.10;;;;;;;23.05;46.96;99036.16;20589167;28;20259;-72
2021/01/18 19:54:04;;;;;;;2.50;2.27;;;;;;;23.12;46.62;99031.06;20592789;28;20258;-71
2021/01/18 20:04:06;;;;;;;5.40;2.00;;;;;;;23.14;46.52;99047.41;20583403;28;20223;-70
2021/01/18 20:14:08;;;;;;;3.40;2.60;;;;;;;23.13;46.68;99032.69;20566511;28;20758;-69
2021/01/18 20:24:11;;;;;;;1.77;1.67;;;;;;;23.13;47.00;99030.06;20580919;28;20606;-69
2021/01/18 20:34:14;;;;;;;2.03;1.90;;;;;;;23.14;47.00;99042.19;20606698;28;20344;-69
2021/01/18 20:44:15;;;;;;;2.00;1.80;;;;;;;23.13;46.79;99043.16;20599264;28;20222;-69
2021/01/18 20:54:18;;;;;;;2.07;1.83;;;;;;;23.09;47.01;99023.56;20584756;28;20290;-70
2021/01/18 21:04:20;;;;;;;2.10;1.47;;;;;;;23.11;46.72;99018.97;20592766;28;20659;-70
2021/01/18 21:14:22;;;;;;;2.43;1.60;;;;;;;23.15;46.78;99022.88;20594234;28;20215;-70
2021/01/18 21:24:24;;;;;;;1.93;1.53;;;;;;;23.17;46.69;99028.75;20609014;28;20273;-67
2021/01/18 21:34:26;;;;;;;2.30;1.60;;;;;;;23.23;46.53;99018.44;20616989;28;20693;-67
2021/01/18 21:44:28;;;;;;;2.20;2.00;;;;;;;23.21;46.55;98999.50;20612787;28;20215;-66
2021/01/18 21:54:30;;;;;;;2.40;1.53;;;;;;;23.13;46.67;98999.53;20620350;28;20238;-67
2021/01/18 22:04:32;;;;;;;2.20;2.00;;;;;;;23.14;46.85;98993.28;20615287;28;20290;-68
2021/01/18 22:14:34;;;;;;;2.23;1.70;;;;;;;23.08;46.89;98982.69;20616308;28;20204;-67
2021/01/18 22:24:36;;;;;;;2.37;1.90;;;;;;;23.08;47.01;98977.47;20601156;28;20219;-66
2021/01/18 22:34:39;;;;;;;1.70;1.60;;;;;;;23.09;46.88;98990.38;20600124;28;20231;-66
2021/01/18 22:44:40;;;;;;;2.13;1.90;;;;;;;23.13;46.72;98985.63;20599501;28;20683;-67
2021/01/18 22:54:43;;;;;;;2.07;1.87;;;;;;;23.20;46.53;98986.59;20609633;28;20243;-66
2021/01/18 23:04:44;;;;;;;2.27;2.07;;;;;;;23.22;46.55;98964.53;20619553;28;20298;-66
2021/01/18 23:14:47;;;;;;;1.70;1.60;;;;;;;23.18;46.57;98957.16;20615511;28;20216;-68
2021/01/18 23:24:48;;;;;;;2.13;2.03;;;;;;;23.08;46.18;98956.56;20612815;28;20795;-67
2021/01/18 23:34:50;;;;;;;2.33;1.77;;;;;;;22.98;46.07;98935.03;20621756;28;20312;-67
2021/01/18 23:44:52;;;;;;;1.90;1.80;;;;;;;22.94;46.19;98928.53;20614595;28;20227;-68
2021/01/18 23:54:54;;;;;;;2.03;1.83;;;;;;;22.89;46.11;98923.00;20638926;28;20753;-67
